Time;durP1;ratioP1;P1;durP2;ratioP2;P2;SDS_P1;SDS_P2;PMS_P1;PMS_P2;Temp;Humidity;BMP_temperature;BMP_pressure;BME280_temperature;BME280_humidity;BME280_pressure;Samples;Min_cycle;Max_cycle;Signal;HPM_P1;HPM_P2
2022/12/26 00:02:14;;;;;;;25.40;9.80;;;7.00;99.90;;;;;;7400947;19;20325;-68
2022/12/26 00:04:46;;;;;;;21.30;8.23;;;6.80;99.90;;;;;;7401777;19;19947;-68
2022/12/26 00:07:16;;;;;;;21.00;8.85;;;7.10;99.90;;;;;;7401114;19;20475;-67
2022/12/26 00:09:45;;;;;;;20.85;8.32;;;6.90;99.90;;;;;;7401593;19;20249;-67
2022/12/26 00:12:14;;;;;;;22.23;8.52;;;7.00;99.90;;;;;;7401240;19;19948;-68
2022/12/26 00:14:48;;;;;;;22.20;9.55;;;7.20;99.90;;;;;;7405528;19;20332;-68
2022/12/26 00:17:17;;;;;;;27.90;10.15;;;6.90;99.90;;;;;;7406198;19;19911;-67
2022/12/26 00:19:50;;;;;;;29.15;9.65;;;6.90;99.90;;;;;;7407385;19;19915;-67
2022/12/26 00:22:19;;;;;;;31.23;10.15;;;7.00;99.90;;;;;;7410230;19;19941;-67
2022/12/26 00:24:49;;;;;;;35.00;9.30;;;6.90;99.90;;;;;;7407622;19;19907;-68
2022/12/26 00:27:18;;;;;;;20.65;9.18;;;7.00;99.90;;;;;;7407310;19;19922;-68
2022/12/26 00:29:49;;;;;;;24.92;8.77;;;6.90;99.90;;;;;;7407052;19;19932;-68
2022/12/26 00:32:18;;;;;;;32.58;9.57;;;6.90;99.90;;;;;;7407116;19;19963;-68
2022/12/26 00:34:50;;;;;;;27.52;9.55;;;7.00;99.90;;;;;;7407413;19;19929;-68
2022/12/26 00:37:19;;;;;;;24.02;8.80;;;6.40;99.90;;;;;;7407317;19;19918;-68
2022/12/26 00:39:48;;;;;;;19.65;8.50;;;7.10;99.90;;;;;;7406951;19;19915;-67
2022/12/26 00:42:17;;;;;;;23.98;9.30;;;6.90;99.90;;;;;;7407068;19;19919;-68
2022/12/26 00:44:46;;;;;;;18.67;7.82;;;6.90;99.90;;;;;;7406825;19;20551;-68
2022/12/26 00:47:15;;;;;;;20.85;8.88;;;7.90;99.90;;;;;;7407078;19;19982;-68
2022/12/26 00:49:44;;;;;;;19.83;8.82;;;6.90;99.90;;;;;;7407717;19;19946;-67
2022/12/26 00:52:16;;;;;;;23.30;8.98;;;7.00;99.90;;;;;;7406832;19;19918;-68
2022/12/26 00:54:46;;;;;;;26.88;8.95;;;6.90;99.90;;;;;;7407742;19;19978;-67
2022/12/26 00:57:15;;;;;;;25.33;9.40;;;7.00;99.90;;;;;;7406888;19;19921;-68
2022/12/26 00:59:45;;;;;;;36.53;11.25;;;6.90;99.90;;;;;;7406840;19;19934;-67
2022/12/26 01:04:55;;;;;;;50.13;10.73;;;6.90;99.90;;;;;;7406104;19;19914;-67
2022/12/26 01:07:27;;;;;;;67.72;10.15;;;6.90;99.90;;;;;;7406866;19;19926;-67
2022/12/26 01:09:56;;;;;;;44.70;10.05;;;6.90;99.90;;;;;;7406275;19;19939;-68
2022/12/26 01:12:26;;;;;;;57.92;10.63;;;6.80;99.90;;;;;;7407145;19;19922;-67
2022/12/26 01:14:56;;;;;;;61.67;10.63;;;6.90;99.90;;;;;;7406388;19;19974;-67
2022/12/26 01:17:25;;;;;;;38.10;9.93;;;6.80;99.90;;;;;;7405981;19;19915;-68
2022/12/26 01:19:54;;;;;;;39.17;10.25;;;6.80;99.90;;;;;;7406655;19;19925;-68
2022/12/26 01:22:24;;;;;;;47.47;10.70;;;6.90;99.90;;;;;;7405814;19;20329;-67
2022/12/26 01:24:58;;;;;;;24.45;9.20;;;6.80;99.90;;;;;;7404409;19;19954;-67
2022/12/26 01:27:28;;;;;;;48.47;10.48;;;6.90;99.90;;;;;;7405460;19;20722;-67
2022/12/26 01:29:57;;;;;;;40.42;10.50;;;6.80;99.90;;;;;;7406574;19;19934;-67
2022/12/26 01:32:26;;;;;;;31.08;9.90;;;6.90;99.90;;;;;;7405163;19;20301;-67
2022/12/26 01:34:56;;;;;;;29.92;10.45;;;6.90;99.90;;;;;;7406066;19;19914;-67
2022/12/26 01:37:25;;;;;;;30.27;9.25;;;6.00;99.90;;;;;;7406135;19;19919;-67
2022/12/26 01:39:57;;;;;;;30.80;10.35;;;6.80;99.90;;;;;;7406002;19;19911;-69
2022/12/26 01:42:28;;;;;;;21.38;9.27;;;6.80;99.90;;;;;;7405702;19;19946;-67
2022/12/26 01:45:02;;;;;;;23.67;8.85;;;6.90;99.90;;;;;;7405732;19;19993;-67
2022/12/26 01:47:41;;;;;;;20.98;8.30;;;7.00;99.90;;;;;;7405986;19;19926;-67
2022/12/26 01:50:27;;;;;;;18.85;8.40;;;6.90;99.90;;;;;;7405453;19;19929;-67
2022/12/26 01:52:58;;;;;;;19.67;7.45;;;6.90;99.90;;;;;;7405573;19;19918;-66
2022/12/26 01:55:33;;;;;;;17.38;8.20;;;6.90;99.90;;;;;;7405582;19;19934;-67
2022/12/26 01:58:08;;;;;;;21.58;7.95;;;6.90;99.90;;;;;;7405463;19;20011;-67
2022/12/26 02:00:40;;;;;;;21.27;8.90;;;6.90;99.90;;;;;;7405103;19;20276;-67
2022/12/26 02:05:58;;;;;;;17.02;7.88;;;6.90;99.90;;;;;;7405161;19;19922;-67
2022/12/26 02:08:32;;;;;;;21.02;8.65;;;7.00;99.90;;;;;;7405194;19;19922;-66
2022/12/26 02:11:10;;;;;;;19.67;8.15;;;7.10;99.90;;;;;;7404506;19;19915;-66
2022/12/26 02:13:40;;;;;;;13.57;6.50;;;6.90;99.90;;;;;;7404706;19;19986;-66
2022/12/26 02:16:13;;;;;;;13.93;7.07;;;6.90;99.90;;;;;;7404588;19;20254;-67
2022/12/26 02:18:43;;;;;;;18.33;8.07;;;7.80;99.90;;;;;;7405907;19;19918;-66
2022/12/26 02:21:47;;;;;;;18.40;8.35;;;6.90;99.90;;;;;;7404739;19;19919;-67
2022/12/26 02:24:43;;;;;;;14.88;6.70;;;6.90;99.90;;;;;;7405075;19;19919;-67
2022/12/26 02:27:25;;;;;;;18.25;7.75;;;6.90;99.90;;;;;;7404741;19;20542;-67
2022/12/26 02:30:30;;;;;;;17.88;7.20;;;7.00;99.90;;;;;;7404650;19;19990;-67
2022/12/26 02:33:21;;;;;;;13.35;7.45;;;6.90;99.90;;;;;;7402274;19;19926;-66
2022/12/26 02:36:28;;;;;;;15.90;7.32;;;6.90;99.90;;;;;;7404437;19;19935;-67
2022/12/26 02:39:10;;;;;;;14.45;6.95;;;7.00;99.90;;;;;;7403521;19;20337;-67
2022/12/26 02:41:49;;;;;;;14.02;6.25;;;6.90;99.90;;;;;;7404431;19;20253;-67
2022/12/26 02:47:16;;;;;;;14.38;6.85;;;7.00;99.90;;;;;;7404132;19;19907;-66
2022/12/26 03:15:22;;;;;;;11.13;5.47;;;7.00;99.90;;;;;;7403404;19;19910;-67
2022/12/26 03:17:49;;;;;;;;;;;6.90;99.90;;;;;;7405574;19;19915;-67
2022/12/26 03:20:25;;;;;;;8.23;5.00;;;7.00;99.90;;;;;;7406097;19;19984;-67
2022/12/26 03:22:57;;;;;;;10.60;5.30;;;6.90;99.90;;;;;;7403482;19;19923;-66
2022/12/26 03:28:27;;;;;;;10.55;5.10;;;6.90;99.90;;;;;;7402294;19;19987;-67
2022/12/26 03:30:56;;;;;;;11.13;5.22;;;7.00;99.90;;;;;;7401914;19;19938;-67
2022/12/26 03:36:14;;;;;;;9.93;5.68;;;7.00;99.90;;;;;;7402199;19;20319;-67
2022/12/26 03:38:56;;;;;;;10.77;5.78;;;7.00;99.90;;;;;;7401961;19;19935;-67
2022/12/26 04:41:34;;;;;;;11.02;6.40;;;7.80;99.90;;;;;;7408339;19;20009;-67
2022/12/26 04:46:13;;;;;;;16.63;8.32;;;7.20;99.90;;;;;;7405159;19;19910;-66
2022/12/26 04:51:28;;;;;;;18.50;8.68;;;7.30;99.90;;;;;;7406096;19;19919;-66
2022/12/26 04:53:57;;;;;;;22.20;9.45;;;7.20;99.90;;;;;;7406702;19;19911;-66
2022/12/26 04:56:26;;;;;;;16.35;8.48;;;7.40;99.90;;;;;;7407093;19;19926;-66
2022/12/26 04:58:58;;;;;;;17.02;8.75;;;7.30;99.90;;;;;;7407027;19;20336;-66
2022/12/26 05:09:38;;;;;;;20.70;10.23;;;7.30;99.90;;;;;;7404758;19;19915;-67
2022/12/26 05:12:10;;;;;;;18.48;9.30;;;7.20;99.90;;;;;;7404867;19;19989;-66
2022/12/26 05:14:42;;;;;;;21.95;10.38;;;7.30;99.90;;;;;;7406887;19;20438;-66
2022/12/26 05:30:57;;;;;;;19.63;9.98;;;7.30;99.90;;;;;;7405855;19;19918;-67
2022/12/26 05:36:07;;;;;;;21.60;10.82;;;7.20;99.90;;;;;;7405941;19;19914;-66
2022/12/26 05:38:45;;;;;;;17.75;9.95;;;7.30;99.90;;;;;;7405400;19;19914;-66
2022/12/26 05:41:14;;;;;;;19.67;10.23;;;7.30;99.90;;;;;;7405961;19;19922;-66
2022/12/26 05:43:43;;;;;;;22.45;10.70;;;7.40;99.90;;;;;;7405822;19;19935;-66
2022/12/26 05:46:15;;;;;;;19.98;9.93;;;7.40;99.90;;;;;;7404104;19;19911;-66
2022/12/26 05:48:44;;;;;;;19.52;9.70;;;7.30;99.90;;;;;;7408715;19;20255;-66
2022/12/26 05:51:13;;;;;;;17.42;9.23;;;7.30;99.90;;;;;;7405235;19;19930;-66
2022/12/26 05:53:43;;;;;;;19.20;9.98;;;7.40;99.90;;;;;;7406022;19;19966;-66
2022/12/26 05:56:14;;;;;;;20.50;10.32;;;7.70;99.90;;;;;;7405574;19;19931;-67
2022/12/26 05:58:43;;;;;;;15.65;9.57;;;7.50;99.90;;;;;;7405540;19;19922;-66
2022/12/26 06:01:16;;;;;;;19.15;9.90;;;7.50;99.90;;;;;;7405093;19;20575;-67
2022/12/26 06:03:49;;;;;;;15.82;8.65;;;7.40;99.90;;;;;;7404673;19;20009;-67
2022/12/26 06:06:18;;;;;;;16.77;10.57;;;7.60;99.90;;;;;;7405483;19;19919;-66
2022/12/26 06:08:49;;;;;;;17.45;9.07;;;7.40;99.90;;;;;;7404877;19;20280;-67
2022/12/26 06:11:21;;;;;;;16.48;9.45;;;7.40;99.90;;;;;;7403470;19;19934;-67
2022/12/26 06:13:50;;;;;;;17.85;9.77;;;7.40;99.90;;;;;;7405687;19;19959;-67
2022/12/26 06:16:22;;;;;;;16.20;9.52;;;7.40;99.90;;;;;;7408621;19;20285;-66
2022/12/26 06:18:51;;;;;;;18.83;9.35;;;7.40;99.90;;;;;;7404835;19;20528;-67
2022/12/26 06:21:21;;;;;;;17.15;10.23;;;7.40;99.90;;;;;;7404384;19;19919;-67
2022/12/26 06:24:02;;;;;;;15.27;9.13;;;7.20;99.90;;;;;;7404650;19;19948;-67
2022/12/26 06:26:32;;;;;;;17.52;9.38;;;7.30;99.90;;;;;;7404517;19;19925;-67
2022/12/26 06:29:11;;;;;;;18.83;10.00;;;7.30;99.90;;;;;;7404449;19;20339;-67
2022/12/26 06:31:43;;;;;;;17.65;9.60;;;7.90;99.90;;;;;;7403530;19;19926;-67
2022/12/26 06:34:13;;;;;;;19.42;10.23;;;7.30;99.90;;;;;;7402701;19;19981;-67
2022/12/26 06:37:02;;;;;;;18.75;9.90;;;7.20;99.90;;;;;;7402740;19;19974;-67
2022/12/26 06:39:51;;;;;;;16.52;8.48;;;7.30;99.90;;;;;;7402370;19;19915;-66
2022/12/26 06:42:20;;;;;;;16.60;8.90;;;7.30;99.90;;;;;;7403843;19;20023;-66
2022/12/26 06:44:49;;;;;;;17.92;9.10;;;7.50;99.90;;;;;;7403390;19;19922;-66
2022/12/26 06:47:20;;;;;;;17.92;9.23;;;7.40;99.90;;;;;;7406874;19;20324;-66
2022/12/26 06:49:58;;;;;;;18.08;9.25;;;7.40;99.90;;;;;;7404102;19;19922;-66
2022/12/26 06:52:32;;;;;;;16.35;8.13;;;7.40;99.90;;;;;;7402609;19;19914;-66
2022/12/26 06:55:02;;;;;;;17.55;9.27;;;7.50;99.90;;;;;;7404567;19;19919;-66
2022/12/26 06:57:31;;;;;;;18.05;10.00;;;7.50;99.90;;;;;;7403615;19;19931;-66
2022/12/26 07:00:01;;;;;;;18.70;9.20;;;7.40;99.90;;;;;;7403881;19;19918;-67
2022/12/26 07:02:33;;;;;;;16.02;8.90;;;7.50;99.90;;;;;;7403333;19;19907;-66
2022/12/26 07:05:02;;;;;;;15.65;8.70;;;7.40;99.90;;;;;;7403113;19;19986;-66
2022/12/26 07:07:31;;;;;;;17.40;8.50;;;7.40;99.90;;;;;;7403343;19;19922;-67
2022/12/26 07:10:00;;;;;;;15.90;8.32;;;7.40;99.90;;;;;;7402737;19;19917;-67
2022/12/26 07:12:29;;;;;;;17.90;8.82;;;7.40;99.90;;;;;;7402815;19;20240;-67
2022/12/26 07:14:58;;;;;;;17.60;9.18;;;7.50;99.90;;;;;;7402941;19;19914;-68
2022/12/26 07:17:27;;;;;;;15.38;8.75;;;7.40;99.90;;;;;;7402883;19;19911;-67
2022/12/26 07:19:58;;;;;;;16.05;8.77;;;7.60;99.90;;;;;;7402869;19;19918;-66
2022/12/26 07:22:27;;;;;;;16.80;8.48;;;7.50;99.90;;;;;;7403026;19;19918;-66
2022/12/26 07:24:56;;;;;;;19.42;9.18;;;8.00;99.90;;;;;;7407748;19;20253;-66
2022/12/26 07:27:25;;;;;;;15.43;8.85;;;7.50;99.90;;;;;;7409618;19;19974;-66
2022/12/26 07:29:54;;;;;;;16.20;8.75;;;7.60;99.90;;;;;;7409651;19;19942;-67
2022/12/26 07:32:23;;;;;;;15.73;8.82;;;7.50;99.90;;;;;;7407308;19;19974;-66
2022/12/26 07:34:52;;;;;;;17.42;8.00;;;7.40;99.90;;;;;;7404911;19;19943;-66
2022/12/26 07:37:23;;;;;;;18.00;9.30;;;7.60;99.90;;;;;;7406420;19;19925;-66
2022/12/26 07:39:52;;;;;;;18.23;9.00;;;7.40;99.90;;;;;;7406809;19;19994;-66
2022/12/26 07:42:22;;;;;;;16.27;8.52;;;7.60;99.90;;;;;;7407467;19;19962;-66
2022/12/26 07:44:51;;;;;;;13.57;7.57;;;7.50;99.90;;;;;;7406756;19;19982;-67
2022/12/26 07:47:20;;;;;;;14.50;7.65;;;7.50;99.90;;;;;;7406776;19;19938;-67
2022/12/26 07:49:49;;;;;;;17.25;8.50;;;7.50;99.90;;;;;;7406793;19;19922;-67
2022/12/26 07:52:18;;;;;;;14.68;8.15;;;7.50;99.90;;;;;;7405881;19;20336;-67
2022/12/26 07:54:50;;;;;;;12.88;7.20;;;7.50;99.90;;;;;;7406203;19;19919;-67
2022/12/26 07:57:19;;;;;;;13.00;7.60;;;7.50;99.90;;;;;;7405679;19;20365;-67
2022/12/26 07:59:48;;;;;;;13.75;6.80;;;7.50;99.90;;;;;;7405891;19;19918;-66
2022/12/26 08:02:18;;;;;;;12.93;7.72;;;7.50;99.90;;;;;;7405951;19;19935;-67
2022/12/26 08:04:47;;;;;;;10.60;6.50;;;7.70;99.90;;;;;;7405595;19;19933;-66
2022/12/26 08:07:32;;;;;;;11.52;6.18;;;7.70;99.90;;;;;;7405619;19;20336;-66
2022/12/26 08:10:24;;;;;;;13.82;7.70;;;7.70;99.90;;;;;;7404009;19;19910;-66
2022/12/26 08:13:13;;;;;;;10.00;5.57;;;7.70;99.90;;;;;;7402330;19;19911;-67
2022/12/26 08:15:42;;;;;;;10.40;5.57;;;7.70;99.90;;;;;;7405565;19;19928;-66
2022/12/26 08:18:11;;;;;;;14.20;6.78;;;7.70;99.90;;;;;;7405140;19;19954;-66
2022/12/26 08:21:00;;;;;;;9.35;5.20;;;7.70;99.90;;;;;;7403906;19;19926;-66
2022/12/26 08:23:49;;;;;;;;;;;7.90;99.90;;;;;;7406468;19;19911;-66
2022/12/26 08:26:24;;;;;;;10.80;5.25;;;7.80;99.90;;;;;;7404879;19;19931;-66
2022/12/26 08:28:53;;;;;;;9.95;5.78;;;7.70;99.90;;;;;;7404996;19;19914;-66
2022/12/26 08:31:23;;;;;;;8.82;5.43;;;7.70;99.90;;;;;;7405131;19;19921;-66
2022/12/26 08:33:52;;;;;;;10.50;5.50;;;7.90;99.90;;;;;;7258370;19;2844954;-67
2022/12/26 08:36:21;;;;;;;10.82;5.93;;;7.80;99.90;;;;;;7407058;19;19978;-66
2022/12/26 08:38:49;;;;;;;12.23;5.97;;;7.70;99.90;;;;;;7407113;19;20282;-66
2022/12/26 08:41:26;;;;;;;11.50;6.55;;;7.80;99.90;;;;;;7407348;19;19929;-66
2022/12/26 08:43:55;;;;;;;14.25;7.57;;;7.70;99.90;;;;;;7409044;19;19925;-67
2022/12/26 08:46:25;;;;;;;13.00;5.55;;;7.70;99.90;;;;;;7404944;19;19983;-66
2022/12/26 08:48:55;;;;;;;13.18;7.18;;;7.70;99.90;;;;;;7407068;19;19919;-66
2022/12/26 08:51:25;;;;;;;14.13;7.25;;;7.60;99.90;;;;;;7406651;19;19919;-66
2022/12/26 08:53:56;;;;;;;16.08;7.40;;;7.70;99.90;;;;;;7404926;19;19922;-66
2022/12/26 08:56:29;;;;;;;13.43;7.85;;;7.70;99.90;;;;;;7407455;19;19918;-66
2022/12/26 08:58:59;;;;;;;10.98;6.00;;;7.70;99.90;;;;;;7405378;19;19922;-66
2022/12/26 09:01:30;;;;;;;10.80;6.07;;;7.60;99.90;;;;;;7406737;19;20015;-67
2022/12/26 09:04:01;;;;;;;13.00;6.50;;;7.70;99.90;;;;;;7406032;19;19971;-67
2022/12/26 09:06:33;;;;;;;13.52;6.80;;;7.70;99.90;;;;;;7406740;19;19914;-66
2022/12/26 09:09:02;;;;;;;14.85;7.22;;;7.80;99.90;;;;;;7407064;19;19933;-67
2022/12/26 09:11:34;;;;;;;12.52;6.65;;;7.70;99.90;;;;;;7406570;19;19948;-66
2022/12/26 09:14:04;;;;;;;10.50;6.07;;;6.60;99.90;;;;;;7404336;19;20022;-66
2022/12/26 09:16:35;;;;;;;14.18;6.60;;;7.70;99.90;;;;;;7410632;19;19914;-66
2022/12/26 09:19:07;;;;;;;11.88;6.45;;;7.90;99.90;;;;;;7406339;19;19929;-66
2022/12/26 09:21:36;;;;;;;11.40;6.25;;;7.80;99.90;;;;;;7406312;19;19967;-66
2022/12/26 09:24:08;;;;;;;11.93;6.18;;;7.70;99.90;;;;;;7406346;19;19915;-67
2022/12/26 09:26:40;;;;;;;10.23;6.00;;;7.80;99.90;;;;;;7405952;19;20003;-66
2022/12/26 09:29:09;;;;;;;9.70;5.65;;;7.70;99.90;;;;;;7405853;19;20272;-66
2022/12/26 09:31:38;;;;;;;11.77;5.88;;;7.80;99.90;;;;;;7406398;19;19925;-66
2022/12/26 09:34:08;;;;;;;8.07;5.07;;;7.70;99.90;;;;;;7403668;19;20336;-67
2022/12/26 09:36:39;;;;;;;9.45;5.07;;;7.70;99.90;;;;;;7406131;19;19933;-67
2022/12/26 09:39:09;;;;;;;11.98;5.30;;;7.70;99.90;;;;;;7406239;19;20247;-67
2022/12/26 09:41:56;;;;;;;8.25;5.00;;;7.70;99.90;;;;;;7405678;19;19918;-68
2022/12/26 09:44:29;;;;;;;12.05;5.68;;;7.70;99.90;;;;;;7408008;19;19918;-68
2022/12/26 09:47:13;;;;;;;10.30;5.65;;;7.60;99.90;;;;;;7403309;19;19921;-67
2022/12/26 09:49:49;;;;;;;8.70;4.53;;;7.60;99.90;;;;;;7404746;19;19922;-67
2022/12/26 09:52:21;;;;;;;7.13;4.43;;;7.60;99.90;;;;;;7405593;19;19919;-67
2022/12/26 09:54:53;;;;;;;6.68;4.90;;;7.60;99.90;;;;;;7406034;19;19935;-67
2022/12/26 09:57:35;;;;;;;7.97;4.03;;;7.80;99.90;;;;;;7405447;19;20320;-67
2022/12/26 10:00:08;;;;;;;8.02;4.55;;;7.70;99.90;;;;;;7405132;19;19910;-67
2022/12/26 10:02:37;;;;;;;5.53;3.03;;;7.60;99.90;;;;;;7403510;19;19928;-67
2022/12/26 10:05:08;;;;;;;7.47;2.97;;;7.80;99.90;;;;;;7405770;19;19914;-67
2022/12/26 10:07:43;;;;;;;7.28;2.55;;;7.90;99.90;;;;;;7405448;19;20325;-67
2022/12/26 10:10:15;;;;;;;7.03;2.42;;;7.90;99.90;;;;;;7404951;19;19935;-67
2022/12/26 10:12:56;;;;;;;3.70;2.58;;;8.00;99.90;;;;;;7404396;19;19957;-67
2022/12/26 10:15:39;;;;;;;7.68;2.58;;;8.00;99.90;;;;;;7404950;19;20357;-67
2022/12/26 10:18:20;;;;;;;4.50;2.30;;;7.90;99.90;;;;;;7405021;19;20345;-67
2022/12/26 10:21:21;;;;;;;3.35;2.10;;;8.00;99.90;;;;;;7404589;19;19939;-67
2022/12/26 10:23:53;;;;;;;8.43;2.75;;;8.00;99.90;;;;;;7404060;19;19918;-67
2022/12/26 10:26:26;;;;;;;6.63;3.25;;;7.90;99.90;;;;;;7404152;19;19936;-67
2022/12/26 10:29:03;;;;;;;6.32;3.00;;;7.90;99.90;;;;;;7404239;19;19931;-67
2022/12/26 10:31:37;;;;;;;5.72;1.40;;;7.90;99.90;;;;;;7404556;19;19919;-67
2022/12/26 10:34:14;;;;;;;4.30;0.80;;;7.90;99.90;;;;;;7402680;19;19918;-67
2022/12/26 10:36:47;;;;;;;3.85;1.13;;;7.80;99.90;;;;;;7403956;19;19919;-66
2022/12/26 10:39:22;;;;;;;5.93;1.27;;;7.80;99.90;;;;;;7404221;19;19921;-67
2022/12/26 10:41:54;;;;;;;7.78;1.00;;;7.60;99.90;;;;;;7403404;19;20245;-67
2022/12/26 10:44:25;;;;;;;6.82;1.00;;;7.40;99.90;;;;;;7404498;19;20272;-66
2022/12/26 10:47:07;;;;;;;;;;;7.30;99.90;;;;;;7404383;19;19911;-66
2022/12/26 10:49:37;;;;;;;5.70;1.10;;;7.20;99.90;;;;;;7401892;19;19986;-67
2022/12/26 10:52:06;;;;;;;6.45;0.85;;;7.20;99.90;;;;;;7403552;19;19919;-67
2022/12/26 10:54:35;;;;;;;5.20;0.80;;;7.10;99.90;;;;;;7402406;19;19915;-67
2022/12/26 10:57:07;;;;;;;3.53;0.70;;;7.10;99.90;;;;;;7403401;19;19924;-66
2022/12/26 10:59:45;;;;;;;3.92;0.88;;;6.80;99.90;;;;;;7403765;19;19919;-66
2022/12/26 11:02:23;;;;;;;6.80;1.33;;;6.90;99.90;;;;;;7402957;19;19910;-67
2022/12/26 11:05:04;;;;;;;10.90;1.25;;;7.40;99.90;;;;;;7403417;19;19970;-66
2022/12/26 11:07:36;;;;;;;4.55;0.70;;;6.80;99.90;;;;;;7403361;19;19914;-66
2022/12/26 11:10:07;;;;;;;4.72;0.73;;;6.80;99.90;;;;;;7403031;19;19931;-66
2022/12/26 11:12:41;;;;;;;6.35;1.00;;;6.80;99.90;;;;;;7405359;19;19922;-66
2022/12/26 11:15:27;;;;;;;5.95;0.93;;;8.00;99.90;;;;;;7402614;19;19974;-66
2022/12/26 11:18:08;;;;;;;3.80;0.80;;;6.70;99.90;;;;;;7403076;19;19934;-66
2022/12/26 11:20:37;;;;;;;4.80;0.50;;;6.60;99.90;;;;;;7402975;19;19918;-66
2022/12/26 11:23:30;;;;;;;4.25;0.80;;;6.60;99.90;;;;;;7402682;19;19929;-66
2022/12/26 11:26:01;;;;;;;2.63;0.60;;;6.50;99.90;;;;;;7402626;19;20301;-66
2022/12/26 11:28:33;;;;;;;6.22;0.75;;;6.60;99.90;;;;;;7402251;19;19935;-67
2022/12/26 11:31:07;;;;;;;3.13;0.70;;;6.40;99.90;;;;;;7402029;19;19925;-66
2022/12/26 11:33:46;;;;;;;4.00;0.85;;;6.40;99.90;;;;;;7400889;19;19931;-66
2022/12/26 11:36:22;;;;;;;3.72;0.98;;;6.30;99.90;;;;;;7402235;19;19918;-67
2022/12/26 11:38:56;;;;;;;1.88;0.73;;;6.10;99.90;;;;;;7402553;19;20027;-67
2022/12/26 11:41:38;;;;;;;2.75;0.40;;;7.00;99.90;;;;;;7403072;19;20014;-67
2022/12/26 11:44:24;;;;;;;2.28;0.75;;;6.10;99.90;;;;;;7405193;19;19922;-67
2022/12/26 11:46:59;;;;;;;4.28;0.60;;;6.20;99.90;;;;;;7399969;19;20233;-67
2022/12/26 11:49:33;;;;;;;6.25;1.05;;;6.10;99.90;;;;;;7402146;19;19919;-66
2022/12/26 11:52:04;;;;;;;7.10;0.90;;;6.10;99.90;;;;;;7401420;19;19911;-66
2022/12/26 11:54:36;;;;;;;5.75;0.63;;;6.10;99.90;;;;;;7399859;19;20258;-67
2022/12/26 11:57:32;;;;;;;4.78;0.70;;;6.10;99.90;;;;;;7402004;19;20360;-67
2022/12/26 12:00:20;;;;;;;3.67;0.52;;;6.20;99.90;;;;;;7399160;19;19948;-67
2022/12/26 12:02:53;;;;;;;3.50;0.80;;;6.10;99.90;;;;;;7400916;19;19919;-66
2022/12/26 12:05:38;;;;;;;6.97;0.50;;;6.20;99.90;;;;;;7401375;19;19918;-66
2022/12/26 12:08:35;;;;;;;4.20;1.10;;;6.00;99.90;;;;;;7401328;19;19915;-66
2022/12/26 12:11:22;;;;;;;6.13;0.63;;;6.20;99.90;;;;;;7407354;19;19922;-66
2022/12/26 12:14:14;;;;;;;3.17;0.70;;;6.00;99.90;;;;;;7406606;19;19978;-66
2022/12/26 12:16:53;;;;;;;4.25;0.93;;;6.10;99.90;;;;;;7408334;19;19918;-66
2022/12/26 12:19:40;;;;;;;2.08;0.47;;;6.20;99.90;;;;;;7407588;19;20275;-67
2022/12/26 12:22:28;;;;;;;4.63;0.70;;;6.00;99.90;;;;;;7408133;19;19910;-66
2022/12/26 12:25:30;;;;;;;2.35;0.60;;;6.00;99.90;;;;;;7407845;19;19936;-66
2022/12/26 12:28:06;;;;;;;2.15;0.80;;;5.90;99.90;;;;;;7407996;19;19929;-66
2022/12/26 12:30:40;;;;;;;6.18;0.55;;;5.80;99.90;;;;;;7407804;19;19918;-66
2022/12/26 12:33:26;;;;;;;7.05;1.15;;;5.70;99.90;;;;;;7406447;19;19941;-66
2022/12/26 12:36:10;;;;;;;6.63;0.85;;;5.80;99.90;;;;;;7407197;19;19922;-66
2022/12/26 12:38:52;;;;;;;3.63;0.75;;;6.50;99.90;;;;;;7407233;19;19921;-66
2022/12/26 12:41:45;;;;;;;8.75;1.48;;;6.00;99.90;;;;;;7407737;19;19919;-66
2022/12/26 12:44:19;;;;;;;7.90;0.82;;;5.80;99.90;;;;;;7407737;19;19915;-66
2022/12/26 12:46:54;;;;;;;5.70;0.70;;;5.80;99.90;;;;;;7404494;19;19915;-66
2022/12/26 12:49:43;;;;;;;8.90;1.08;;;6.10;99.90;;;;;;7407439;19;19923;-66
2022/12/26 12:52:20;;;;;;;;;;;5.80;99.90;;;;;;7409376;19;19915;-67
2022/12/26 12:55:31;;;;;;;7.60;1.23;;;5.90;99.90;;;;;;7405631;19;19910;-67
2022/12/26 12:58:09;;;;;;;6.80;1.50;;;5.90;99.90;;;;;;7404526;19;20412;-66
2022/12/26 13:00:46;;;;;;;8.60;2.45;;;5.90;99.90;;;;;;7407297;19;19930;-66
2022/12/26 13:03:23;;;;;;;6.53;1.10;;;5.90;99.90;;;;;;7407053;19;19946;-67
2022/12/26 13:06:01;;;;;;;8.00;1.13;;;5.90;99.90;;;;;;7406929;19;19918;-67
2022/12/26 13:08:38;;;;;;;8.38;1.00;;;5.80;99.90;;;;;;7407037;19;20257;-66
2022/12/26 13:11:14;;;;;;;7.57;1.00;;;5.80;99.90;;;;;;7406851;19;19938;-66
2022/12/26 13:13:53;;;;;;;7.35;1.60;;;6.10;99.90;;;;;;7409608;19;19923;-67
2022/12/26 13:16:27;;;;;;;4.90;0.95;;;5.90;99.90;;;;;;7409407;19;20216;-66
2022/12/26 13:19:00;;;;;;;6.90;1.00;;;6.00;99.90;;;;;;7406483;19;19950;-67
2022/12/26 13:21:32;;;;;;;6.57;2.05;;;6.90;99.90;;;;;;7403489;19;19915;-66
2022/12/26 13:26:56;;;;;;;8.73;0.90;;;6.00;99.90;;;;;;7406502;19;20272;-67
2022/12/26 13:29:36;;;;;;;5.68;1.27;;;6.10;99.90;;;;;;7405960;19;19918;-67
2022/12/26 13:32:15;;;;;;;18.23;1.63;;;6.10;99.90;;;;;;7406429;19;19906;-67
2022/12/26 13:34:45;;;;;;;7.68;1.25;;;6.10;99.90;;;;;;7403572;19;19943;-67
2022/12/26 13:37:50;;;;;;;6.63;1.00;;;6.20;99.90;;;;;;7405388;19;19919;-66
2022/12/26 13:40:23;;;;;;;8.57;1.35;;;6.80;99.90;;;;;;7405067;19;19922;-66
2022/12/26 13:46:00;;;;;;;11.25;2.90;;;6.20;99.90;;;;;;7404631;19;19911;-67
2022/12/26 13:48:57;;;;;;;7.13;1.52;;;6.40;99.90;;;;;;7405743;19;19922;-66
2022/12/26 13:51:49;;;;;;;7.88;1.08;;;6.20;99.90;;;;;;7405089;19;19919;-67
2022/12/26 13:54:19;;;;;;;5.97;1.00;;;6.30;99.90;;;;;;7404580;19;19907;-67
2022/12/26 13:57:21;;;;;;;4.50;0.90;;;6.20;99.90;;;;;;7404807;19;20353;-67
2022/12/26 14:00:17;;;;;;;9.23;1.35;;;7.30;99.90;;;;;;7404063;19;20376;-67
2022/12/26 14:03:26;;;;;;;7.15;1.23;;;6.30;99.90;;;;;;7404878;19;19915;-66
2022/12/26 14:06:20;;;;;;;3.83;0.75;;;6.30;99.90;;;;;;7404453;19;19935;-67
2022/12/26 14:09:15;;;;;;;8.85;1.05;;;6.30;99.90;;;;;;7405332;19;19918;-67
2022/12/26 14:12:06;;;;;;;9.85;1.42;;;6.40;99.90;;;;;;7407305;19;20269;-66
2022/12/26 14:14:54;;;;;;;8.10;1.48;;;6.50;99.90;;;;;;7404174;19;19926;-66
2022/12/26 14:17:40;;;;;;;8.95;1.75;;;6.40;99.90;;;;;;7404597;19;19932;-67
2022/12/26 14:20:43;;;;;;;9.32;1.25;;;6.40;99.90;;;;;;7404890;19;19926;-67
2022/12/26 14:23:28;;;;;;;4.78;0.80;;;6.80;99.90;;;;;;7404048;19;20292;-67
2022/12/26 14:26:12;;;;;;;7.75;1.00;;;7.00;99.90;;;;;;7404690;19;19938;-67
2022/12/26 14:28:59;;;;;;;6.10;0.90;;;6.20;99.90;;;;;;7404146;19;19922;-67
2022/12/26 14:31:36;;;;;;;9.23;1.38;;;6.00;99.90;;;;;;7403061;19;19911;-67
2022/12/26 14:34:31;;;;;;;5.72;1.15;;;6.10;99.90;;;;;;7401882;19;19922;-67
2022/12/26 14:37:06;;;;;;;6.20;1.50;;;5.80;99.90;;;;;;7402319;19;19918;-66
2022/12/26 14:39:45;;;;;;;7.95;1.35;;;5.90;99.90;;;;;;7403825;19;19923;-66
2022/12/26 14:45:04;;;;;;;9.02;1.13;;;5.90;99.90;;;;;;7403330;19;19914;-67
2022/12/26 14:47:39;;;;;;;7.18;0.98;;;5.90;99.90;;;;;;7403396;19;20309;-67
2022/12/26 14:50:42;;;;;;;8.48;1.20;;;5.80;99.90;;;;;;7403685;19;19921;-67
2022/12/26 14:53:31;;;;;;;11.23;2.00;;;5.80;99.90;;;;;;7403006;19;19915;-67
2022/12/26 14:56:02;;;;;;;6.75;1.40;;;5.80;99.90;;;;;;7401736;19;20360;-66
2022/12/26 14:58:49;;;;;;;8.40;1.50;;;5.60;99.90;;;;;;7403195;19;19950;-66
2022/12/26 15:01:57;;;;;;;6.38;1.58;;;5.70;99.90;;;;;;7403685;19;19990;-66
2022/12/26 15:04:59;;;;;;;14.80;2.30;;;5.40;99.90;;;;;;7402096;19;20448;-66
2022/12/26 15:07:58;;;;;;;4.78;1.45;;;5.40;99.90;;;;;;7402205;19;19925;-66
2022/12/26 15:10:57;;;;;;;7.43;1.30;;;5.40;99.90;;;;;;7404503;19;19923;-66
2022/12/26 15:13:56;;;;;;;6.65;1.25;;;5.30;99.90;;;;;;7402604;19;20332;-66
2022/12/26 15:16:38;;;;;;;8.75;1.88;;;6.30;99.90;;;;;;7402981;19;19925;-67
2022/12/26 15:19:37;;;;;;;13.20;3.58;;;5.10;99.90;;;;;;7402628;19;19919;-66
2022/12/26 15:22:37;;;;;;;18.23;6.40;;;5.00;99.90;;;;;;7402521;19;20032;-66
2022/12/26 15:25:37;;;;;;;17.83;6.47;;;5.00;99.90;;;;;;7401866;19;20287;-66
2022/12/26 15:28:45;;;;;;;11.57;3.25;;;5.00;99.90;;;;;;7401182;19;19933;-66
2022/12/26 15:31:29;;;;;;;11.50;3.35;;;4.90;99.90;;;;;;7402279;19;19910;-66
2022/12/26 15:34:02;;;;;;;9.20;2.30;;;5.00;99.90;;;;;;7400625;19;19922;-67
2022/12/26 15:36:43;;;;;;;11.15;3.67;;;4.60;99.90;;;;;;7401844;19;19910;-67
2022/12/26 15:39:26;;;;;;;24.42;8.82;;;4.90;99.90;;;;;;7403990;19;19931;-67
2022/12/26 15:42:04;;;;;;;8.60;1.58;;;4.90;99.90;;;;;;7401970;19;19930;-67
2022/12/26 15:44:44;;;;;;;7.82;1.55;;;5.90;99.90;;;;;;7402741;19;19935;-66
2022/12/26 15:47:20;;;;;;;11.20;5.18;;;5.40;99.90;;;;;;7408448;19;19925;-66
2022/12/26 15:50:08;;;;;;;7.22;1.45;;;4.70;99.90;;;;;;7408786;19;19918;-66
2022/12/26 15:52:48;;;;;;;8.73;1.38;;;4.80;99.90;;;;;;7408484;19;20316;-67
2022/12/26 15:55:40;;;;;;;6.88;2.28;;;4.70;99.90;;;;;;7407598;19;19923;-66
2022/12/26 15:58:20;;;;;;;5.38;2.15;;;4.70;99.90;;;;;;7408541;19;19914;-67